sensor_id;sensor_type;location;lat;lon;timestamp;P1;durP1;ratioP1;P2;durP2;ratioP2
76818;SDS011;65772;51.096;17.006;2022-12-10T00:00:53;54.40;;;23.60;;
76818;SDS011;65772;51.096;17.006;2022-12-10T00:03:31;62.50;;;24.10;;
76818;SDS011;65772;51.096;17.006;2022-12-10T00:06:02;62.70;;;24.00;;
76818;SDS011;65772;51.096;17.006;2022-12-10T00:11:03;61.90;;;22.10;;
76818;SDS011;65772;51.096;17.006;2022-12-10T00:13:36;62.10;;;23.30;;
76818;SDS011;65772;51.096;17.006;2022-12-10T00:16:08;59.30;;;22.90;;
76818;SDS011;65772;51.096;17.006;2022-12-10T00:18:41;60.90;;;23.90;;
76818;SDS011;65772;51.096;17.006;2022-12-10T00:21:13;56.80;;;22.40;;
76818;SDS011;65772;51.096;17.006;2022-12-10T00:23:47;62.30;;;23.50;;
76818;SDS011;65772;51.096;17.006;2022-12-10T00:26:18;65.60;;;22.90;;
76818;SDS011;65772;51.096;17.006;2022-12-10T00:28:50;69.30;;;26.10;;
76818;SDS011;65772;51.096;17.006;2022-12-10T00:31:22;62.30;;;22.90;;
76818;SDS011;65772;51.096;17.006;2022-12-10T00:33:54;67.00;;;24.50;;
76818;SDS011;65772;51.096;17.006;2022-12-10T00:38:56;59.30;;;20.90;;
76818;SDS011;65772;51.096;17.006;2022-12-10T00:41:28;59.60;;;22.40;;
76818;SDS011;65772;51.096;17.006;2022-12-10T00:43:59;77.00;;;26.30;;
76818;SDS011;65772;51.096;17.006;2022-12-10T00:46:29;77.30;;;25.30;;
76818;SDS011;65772;51.096;17.006;2022-12-10T00:49:01;75.00;;;25.10;;
76818;SDS011;65772;51.096;17.006;2022-12-10T00:51:32;67.70;;;21.40;;
76818;SDS011;65772;51.096;17.006;2022-12-10T00:54:02;61.10;;;23.90;;
76818;SDS011;65772;51.096;17.006;2022-12-10T00:56:34;60.80;;;21.70;;
76818;SDS011;65772;51.096;17.006;2022-12-10T00:59:04;62.60;;;23.30;;
76818;SDS011;65772;51.096;17.006;2022-12-10T01:01:35;59.30;;;21.60;;
76818;SDS011;65772;51.096;17.006;2022-12-10T01:04:08;58.20;;;21.90;;
76818;SDS011;65772;51.096;17.006;2022-12-10T01:06:42;64.10;;;23.00;;
76818;SDS011;65772;51.096;17.006;2022-12-10T01:09:14;56.00;;;21.20;;
76818;SDS011;65772;51.096;17.006;2022-12-10T01:11:47;61.00;;;23.50;;
76818;SDS011;65772;51.096;17.006;2022-12-10T01:14:19;57.70;;;22.10;;
76818;SDS011;65772;51.096;17.006;2022-12-10T01:16:54;57.80;;;21.80;;
76818;SDS011;65772;51.096;17.006;2022-12-10T01:19:26;57.60;;;21.40;;
76818;SDS011;65772;51.096;17.006;2022-12-10T01:21:57;56.60;;;20.70;;
76818;SDS011;65772;51.096;17.006;2022-12-10T01:24:29;63.20;;;22.50;;
76818;SDS011;65772;51.096;17.006;2022-12-10T01:27:00;55.80;;;20.40;;
76818;SDS011;65772;51.096;17.006;2022-12-10T01:29:30;59.60;;;21.00;;
76818;SDS011;65772;51.096;17.006;2022-12-10T01:32:01;59.10;;;22.20;;
76818;SDS011;65772;51.096;17.006;2022-12-10T01:34:32;60.60;;;20.90;;
76818;SDS011;65772;51.096;17.006;2022-12-10T01:37:02;56.50;;;20.20;;
76818;SDS011;65772;51.096;17.006;2022-12-10T01:39:32;63.70;;;22.00;;
76818;SDS011;65772;51.096;17.006;2022-12-10T01:42:03;60.70;;;22.00;;
76818;SDS011;65772;51.096;17.006;2022-12-10T01:47:30;68.90;;;22.80;;
76818;SDS011;65772;51.096;17.006;2022-12-10T01:50:01;64.30;;;22.90;;
76818;SDS011;65772;51.096;17.006;2022-12-10T01:52:37;59.10;;;19.90;;
76818;SDS011;65772;51.096;17.006;2022-12-10T01:55:45;57.20;;;21.40;;
76818;SDS011;65772;51.096;17.006;2022-12-10T01:58:08;57.60;;;21.20;;
76818;SDS011;65772;51.096;17.006;2022-12-10T02:00:43;53.70;;;20.70;;
76818;SDS011;65772;51.096;17.006;2022-12-10T02:03:22;51.00;;;20.90;;
76818;SDS011;65772;51.096;17.006;2022-12-10T02:06:01;64.20;;;21.50;;
76818;SDS011;65772;51.096;17.006;2022-12-10T02:08:46;58.50;;;20.60;;
76818;SDS011;65772;51.096;17.006;2022-12-10T02:11:28;62.00;;;22.70;;
76818;SDS011;65772;51.096;17.006;2022-12-10T02:14:02;55.20;;;20.60;;
76818;SDS011;65772;51.096;17.006;2022-12-10T02:16:40;54.90;;;17.70;;
76818;SDS011;65772;51.096;17.006;2022-12-10T02:19:18;60.50;;;20.90;;
76818;SDS011;65772;51.096;17.006;2022-12-10T02:21:54;50.80;;;18.30;;
76818;SDS011;65772;51.096;17.006;2022-12-10T02:24:29;56.70;;;19.20;;
76818;SDS011;65772;51.096;17.006;2022-12-10T02:27:03;60.20;;;20.30;;
76818;SDS011;65772;51.096;17.006;2022-12-10T02:29:39;54.20;;;20.50;;
76818;SDS011;65772;51.096;17.006;2022-12-10T02:32:13;58.20;;;21.90;;
76818;SDS011;65772;51.096;17.006;2022-12-10T02:34:49;58.70;;;19.80;;
76818;SDS011;65772;51.096;17.006;2022-12-10T02:37:24;55.80;;;20.00;;
76818;SDS011;65772;51.096;17.006;2022-12-10T02:39:59;63.10;;;20.90;;
76818;SDS011;65772;51.096;17.006;2022-12-10T02:42:36;68.30;;;21.80;;
76818;SDS011;65772;51.096;17.006;2022-12-10T02:45:10;68.40;;;21.70;;
76818;SDS011;65772;51.096;17.006;2022-12-10T02:47:41;62.00;;;21.00;;
76818;SDS011;65772;51.096;17.006;2022-12-10T02:50:13;57.30;;;21.20;;
76818;SDS011;65772;51.096;17.006;2022-12-10T02:52:49;58.20;;;20.00;;
76818;SDS011;65772;51.096;17.006;2022-12-10T02:55:20;59.20;;;20.60;;
76818;SDS011;65772;51.096;17.006;2022-12-10T02:57:56;53.70;;;19.50;;
76818;SDS011;65772;51.096;17.006;2022-12-10T03:00:41;49.70;;;19.40;;
76818;SDS011;65772;51.096;17.006;2022-12-10T03:03:23;57.90;;;21.20;;
76818;SDS011;65772;51.096;17.006;2022-12-10T03:06:02;56.70;;;21.30;;
76818;SDS011;65772;51.096;17.006;2022-12-10T03:08:41;58.70;;;20.70;;
76818;SDS011;65772;51.096;17.006;2022-12-10T03:11:17;54.30;;;20.30;;
76818;SDS011;65772;51.096;17.006;2022-12-10T03:13:51;59.90;;;20.70;;
76818;SDS011;65772;51.096;17.006;2022-12-10T03:16:28;55.90;;;19.70;;
76818;SDS011;65772;51.096;17.006;2022-12-10T03:19:04;61.40;;;20.20;;
76818;SDS011;65772;51.096;17.006;2022-12-10T03:21:39;55.30;;;19.30;;
76818;SDS011;65772;51.096;17.006;2022-12-10T03:24:14;56.70;;;20.80;;
76818;SDS011;65772;51.096;17.006;2022-12-10T03:26:47;57.90;;;20.30;;
76818;SDS011;65772;51.096;17.006;2022-12-10T03:29:19;51.80;;;18.30;;
76818;SDS011;65772;51.096;17.006;2022-12-10T03:31:57;51.90;;;19.80;;
76818;SDS011;65772;51.096;17.006;2022-12-10T03:34:29;63.70;;;20.00;;
76818;SDS011;65772;51.096;17.006;2022-12-10T03:37:00;55.60;;;18.40;;
76818;SDS011;65772;51.096;17.006;2022-12-10T03:39:32;62.00;;;21.70;;
76818;SDS011;65772;51.096;17.006;2022-12-10T03:42:03;72.70;;;21.40;;
76818;SDS011;65772;51.096;17.006;2022-12-10T03:44:35;68.90;;;21.50;;
76818;SDS011;65772;51.096;17.006;2022-12-10T03:47:08;53.40;;;18.90;;
76818;SDS011;65772;51.096;17.006;2022-12-10T03:49:41;66.30;;;20.50;;
76818;SDS011;65772;51.096;17.006;2022-12-10T03:52:12;61.20;;;22.20;;
76818;SDS011;65772;51.096;17.006;2022-12-10T03:54:43;64.20;;;22.50;;
76818;SDS011;65772;51.096;17.006;2022-12-10T03:57:14;55.10;;;19.80;;
76818;SDS011;65772;51.096;17.006;2022-12-10T03:59:44;52.30;;;19.80;;
76818;SDS011;65772;51.096;17.006;2022-12-10T04:02:15;60.60;;;20.70;;
76818;SDS011;65772;51.096;17.006;2022-12-10T04:04:45;58.50;;;20.50;;
76818;SDS011;65772;51.096;17.006;2022-12-10T04:07:19;52.00;;;19.60;;
76818;SDS011;65772;51.096;17.006;2022-12-10T04:09:50;51.70;;;18.50;;
76818;SDS011;65772;51.096;17.006;2022-12-10T04:12:21;53.90;;;18.80;;
76818;SDS011;65772;51.096;17.006;2022-12-10T04:14:51;55.10;;;19.50;;
76818;SDS011;65772;51.096;17.006;2022-12-10T04:17:39;54.70;;;19.60;;
76818;SDS011;65772;51.096;17.006;2022-12-10T04:20:10;44.30;;;16.50;;
76818;SDS011;65772;51.096;17.006;2022-12-10T04:22:55;47.40;;;18.90;;
76818;SDS011;65772;51.096;17.006;2022-12-10T04:25:43;48.50;;;17.10;;
76818;SDS011;65772;51.096;17.006;2022-12-10T04:28:31;45.20;;;17.20;;
76818;SDS011;65772;51.096;17.006;2022-12-10T04:31:02;46.00;;;16.60;;
76818;SDS011;65772;51.096;17.006;2022-12-10T04:33:32;47.20;;;17.80;;
76818;SDS011;65772;51.096;17.006;2022-12-10T04:36:03;46.20;;;18.00;;
76818;SDS011;65772;51.096;17.006;2022-12-10T04:38:34;46.40;;;16.60;;
76818;SDS011;65772;51.096;17.006;2022-12-10T04:41:05;46.00;;;18.60;;
76818;SDS011;65772;51.096;17.006;2022-12-10T04:43:43;46.00;;;18.90;;
76818;SDS011;65772;51.096;17.006;2022-12-10T04:46:13;52.30;;;20.40;;
76818;SDS011;65772;51.096;17.006;2022-12-10T04:48:44;57.80;;;18.90;;
76818;SDS011;65772;51.096;17.006;2022-12-10T04:51:14;58.40;;;20.00;;
76818;SDS011;65772;51.096;17.006;2022-12-10T04:53:45;48.20;;;19.00;;
76818;SDS011;65772;51.096;17.006;2022-12-10T04:56:15;47.40;;;17.60;;
76818;SDS011;65772;51.096;17.006;2022-12-10T04:58:46;46.60;;;17.60;;
76818;SDS011;65772;51.096;17.006;2022-12-10T05:01:16;42.50;;;16.40;;
76818;SDS011;65772;51.096;17.006;2022-12-10T05:03:47;40.90;;;16.70;;
76818;SDS011;65772;51.096;17.006;2022-12-10T05:06:18;41.80;;;17.00;;
76818;SDS011;65772;51.096;17.006;2022-12-10T05:08:49;42.90;;;17.10;;
76818;SDS011;65772;51.096;17.006;2022-12-10T05:11:20;41.90;;;16.60;;
76818;SDS011;65772;51.096;17.006;2022-12-10T05:16:23;36.90;;;14.90;;
76818;SDS011;65772;51.096;17.006;2022-12-10T05:18:55;38.60;;;15.40;;
76818;SDS011;65772;51.096;17.006;2022-12-10T05:21:28;40.50;;;16.10;;
76818;SDS011;65772;51.096;17.006;2022-12-10T05:24:14;39.00;;;16.30;;
76818;SDS011;65772;51.096;17.006;2022-12-10T05:26:45;40.00;;;15.70;;
76818;SDS011;65772;51.096;17.006;2022-12-10T05:29:19;38.30;;;14.80;;
76818;SDS011;65772;51.096;17.006;2022-12-10T05:31:49;41.10;;;15.80;;
76818;SDS011;65772;51.096;17.006;2022-12-10T05:34:20;39.70;;;16.10;;
76818;SDS011;65772;51.096;17.006;2022-12-10T05:36:53;39.30;;;14.90;;
76818;SDS011;65772;51.096;17.006;2022-12-10T05:39:24;40.30;;;16.50;;
76818;SDS011;65772;51.096;17.006;2022-12-10T05:41:54;42.40;;;16.40;;
76818;SDS011;65772;51.096;17.006;2022-12-10T05:44:25;40.40;;;15.90;;
76818;SDS011;65772;51.096;17.006;2022-12-10T05:46:57;42.40;;;15.90;;
76818;SDS011;65772;51.096;17.006;2022-12-10T05:49:27;39.50;;;15.70;;
76818;SDS011;65772;51.096;17.006;2022-12-10T05:51:58;48.50;;;18.80;;
76818;SDS011;65772;51.096;17.006;2022-12-10T05:54:28;51.50;;;18.00;;
76818;SDS011;65772;51.096;17.006;2022-12-10T05:56:59;49.80;;;18.00;;
76818;SDS011;65772;51.096;17.006;2022-12-10T05:59:29;43.40;;;17.30;;
76818;SDS011;65772;51.096;17.006;2022-12-10T06:02:00;39.90;;;16.80;;
76818;SDS011;65772;51.096;17.006;2022-12-10T06:04:30;42.00;;;16.20;;
76818;SDS011;65772;51.096;17.006;2022-12-10T06:07:01;42.40;;;17.00;;
76818;SDS011;65772;51.096;17.006;2022-12-10T06:09:37;37.90;;;16.40;;
76818;SDS011;65772;51.096;17.006;2022-12-10T06:12:08;40.00;;;17.20;;
76818;SDS011;65772;51.096;17.006;2022-12-10T06:14:38;36.60;;;15.60;;
76818;SDS011;65772;51.096;17.006;2022-12-10T06:17:09;41.20;;;16.70;;
76818;SDS011;65772;51.096;17.006;2022-12-10T06:19:39;37.00;;;14.40;;
76818;SDS011;65772;51.096;17.006;2022-12-10T06:22:10;40.30;;;16.40;;
76818;SDS011;65772;51.096;17.006;2022-12-10T06:24:40;40.80;;;16.60;;
76818;SDS011;65772;51.096;17.006;2022-12-10T06:27:11;38.20;;;15.70;;
76818;SDS011;65772;51.096;17.006;2022-12-10T06:29:42;47.90;;;18.00;;
76818;SDS011;65772;51.096;17.006;2022-12-10T06:32:12;45.90;;;17.50;;
76818;SDS011;65772;51.096;17.006;2022-12-10T06:34:43;46.30;;;17.90;;
76818;SDS011;65772;51.096;17.006;2022-12-10T06:37:14;43.80;;;17.20;;
76818;SDS011;65772;51.096;17.006;2022-12-10T06:39:45;44.30;;;17.00;;
76818;SDS011;65772;51.096;17.006;2022-12-10T06:42:15;44.90;;;17.10;;
76818;SDS011;65772;51.096;17.006;2022-12-10T06:44:46;39.40;;;16.30;;
76818;SDS011;65772;51.096;17.006;2022-12-10T06:47:17;41.00;;;16.70;;
76818;SDS011;65772;51.096;17.006;2022-12-10T06:49:48;38.20;;;16.30;;
76818;SDS011;65772;51.096;17.006;2022-12-10T06:52:19;44.20;;;17.40;;
76818;SDS011;65772;51.096;17.006;2022-12-10T06:54:50;41.30;;;18.00;;
76818;SDS011;65772;51.096;17.006;2022-12-10T06:57:22;51.90;;;20.50;;
76818;SDS011;65772;51.096;17.006;2022-12-10T06:59:54;57.80;;;21.10;;
76818;SDS011;65772;51.096;17.006;2022-12-10T07:04:54;61.60;;;24.50;;
76818;SDS011;65772;51.096;17.006;2022-12-10T07:07:25;50.70;;;18.90;;
76818;SDS011;65772;51.096;17.006;2022-12-10T07:09:55;51.00;;;20.00;;
76818;SDS011;65772;51.096;17.006;2022-12-10T07:12:26;42.80;;;18.20;;
76818;SDS011;65772;51.096;17.006;2022-12-10T07:14:56;40.90;;;18.20;;
76818;SDS011;65772;51.096;17.006;2022-12-10T07:17:27;40.30;;;17.60;;
76818;SDS011;65772;51.096;17.006;2022-12-10T07:19:57;44.80;;;17.90;;
76818;SDS011;65772;51.096;17.006;2022-12-10T07:22:28;41.00;;;17.10;;
76818;SDS011;65772;51.096;17.006;2022-12-10T07:24:58;43.60;;;18.40;;
76818;SDS011;65772;51.096;17.006;2022-12-10T07:27:30;40.50;;;18.40;;
76818;SDS011;65772;51.096;17.006;2022-12-10T07:30:01;40.60;;;17.40;;
76818;SDS011;65772;51.096;17.006;2022-12-10T07:32:32;45.30;;;19.40;;
76818;SDS011;65772;51.096;17.006;2022-12-10T07:35:03;43.40;;;17.90;;
76818;SDS011;65772;51.096;17.006;2022-12-10T07:37:35;39.10;;;15.60;;
76818;SDS011;65772;51.096;17.006;2022-12-10T07:40:07;42.50;;;18.40;;
76818;SDS011;65772;51.096;17.006;2022-12-10T07:42:39;39.10;;;17.30;;
76818;SDS011;65772;51.096;17.006;2022-12-10T07:45:10;34.60;;;15.10;;
76818;SDS011;65772;51.096;17.006;2022-12-10T07:47:40;40.60;;;16.20;;
76818;SDS011;65772;51.096;17.006;2022-12-10T07:50:11;35.60;;;15.40;;
76818;SDS011;65772;51.096;17.006;2022-12-10T07:52:41;34.90;;;15.80;;
76818;SDS011;65772;51.096;17.006;2022-12-10T07:55:12;38.00;;;16.50;;
76818;SDS011;65772;51.096;17.006;2022-12-10T07:57:42;36.40;;;15.50;;
76818;SDS011;65772;51.096;17.006;2022-12-10T08:00:14;38.90;;;15.70;;
76818;SDS011;65772;51.096;17.006;2022-12-10T08:02:45;38.00;;;16.40;;
76818;SDS011;65772;51.096;17.006;2022-12-10T08:05:15;36.40;;;16.00;;
76818;SDS011;65772;51.096;17.006;2022-12-10T08:07:46;42.40;;;18.10;;
76818;SDS011;65772;51.096;17.006;2022-12-10T08:10:16;42.20;;;17.00;;
76818;SDS011;65772;51.096;17.006;2022-12-10T08:12:47;46.50;;;18.30;;
76818;SDS011;65772;51.096;17.006;2022-12-10T08:15:17;41.60;;;17.70;;
76818;SDS011;65772;51.096;17.006;2022-12-10T08:17:48;43.70;;;17.40;;
76818;SDS011;65772;51.096;17.006;2022-12-10T08:20:19;38.00;;;16.20;;
76818;SDS011;65772;51.096;17.006;2022-12-10T08:22:50;39.70;;;17.40;;
76818;SDS011;65772;51.096;17.006;2022-12-10T08:25:21;37.20;;;16.20;;
76818;SDS011;65772;51.096;17.006;2022-12-10T08:27:51;34.20;;;16.40;;
76818;SDS011;65772;51.096;17.006;2022-12-10T08:30:21;36.80;;;15.70;;
76818;SDS011;65772;51.096;17.006;2022-12-10T08:32:52;35.90;;;15.70;;
76818;SDS011;65772;51.096;17.006;2022-12-10T08:35:22;37.50;;;17.00;;
76818;SDS011;65772;51.096;17.006;2022-12-10T08:37:53;36.10;;;15.50;;
76818;SDS011;65772;51.096;17.006;2022-12-10T08:40:23;32.00;;;14.40;;
76818;SDS011;65772;51.096;17.006;2022-12-10T08:42:54;34.00;;;15.00;;
76818;SDS011;65772;51.096;17.006;2022-12-10T08:45:24;35.60;;;15.00;;
76818;SDS011;65772;51.096;17.006;2022-12-10T08:47:55;35.10;;;16.10;;
76818;SDS011;65772;51.096;17.006;2022-12-10T08:50:26;36.40;;;15.10;;
76818;SDS011;65772;51.096;17.006;2022-12-10T08:52:57;33.00;;;13.90;;
76818;SDS011;65772;51.096;17.006;2022-12-10T08:55:28;36.20;;;15.60;;
76818;SDS011;65772;51.096;17.006;2022-12-10T08:57:58;35.90;;;15.40;;
76818;SDS011;65772;51.096;17.006;2022-12-10T09:00:29;35.60;;;15.80;;
76818;SDS011;65772;51.096;17.006;2022-12-10T09:03:00;35.70;;;14.50;;
76818;SDS011;65772;51.096;17.006;2022-12-10T09:05:31;37.60;;;16.30;;
76818;SDS011;65772;51.096;17.006;2022-12-10T09:08:05;37.20;;;15.50;;
76818;SDS011;65772;51.096;17.006;2022-12-10T09:10:36;34.80;;;15.80;;
76818;SDS011;65772;51.096;17.006;2022-12-10T09:13:07;38.70;;;16.80;;
76818;SDS011;65772;51.096;17.006;2022-12-10T09:15:38;40.00;;;17.20;;
76818;SDS011;65772;51.096;17.006;2022-12-10T09:18:08;40.80;;;16.70;;
76818;SDS011;65772;51.096;17.006;2022-12-10T09:20:39;38.70;;;17.80;;
76818;SDS011;65772;51.096;17.006;2022-12-10T09:23:09;45.20;;;19.10;;
76818;SDS011;65772;51.096;17.006;2022-12-10T09:25:40;53.30;;;19.20;;
76818;SDS011;65772;51.096;17.006;2022-12-10T09:28:10;44.30;;;19.30;;
76818;SDS011;65772;51.096;17.006;2022-12-10T09:30:41;45.10;;;19.10;;
76818;SDS011;65772;51.096;17.006;2022-12-10T09:33:12;51.00;;;22.60;;
76818;SDS011;65772;51.096;17.006;2022-12-10T09:35:42;36.90;;;16.60;;
76818;SDS011;65772;51.096;17.006;2022-12-10T09:38:13;35.90;;;15.40;;
76818;SDS011;65772;51.096;17.006;2022-12-10T09:40:45;39.80;;;17.90;;
76818;SDS011;65772;51.096;17.006;2022-12-10T09:43:25;38.40;;;16.90;;
76818;SDS011;65772;51.096;17.006;2022-12-10T09:46:08;39.80;;;17.80;;
76818;SDS011;65772;51.096;17.006;2022-12-10T09:48:49;34.70;;;16.30;;
76818;SDS011;65772;51.096;17.006;2022-12-10T09:51:31;40.50;;;17.60;;
76818;SDS011;65772;51.096;17.006;2022-12-10T09:54:10;37.70;;;16.10;;
76818;SDS011;65772;51.096;17.006;2022-12-10T09:56:47;40.90;;;17.40;;
76818;SDS011;65772;51.096;17.006;2022-12-10T09:59:19;44.60;;;18.50;;
76818;SDS011;65772;51.096;17.006;2022-12-10T10:01:58;43.60;;;18.60;;
76818;SDS011;65772;51.096;17.006;2022-12-10T10:04:40;44.80;;;18.30;;
76818;SDS011;65772;51.096;17.006;2022-12-10T10:07:11;59.00;;;26.60;;
76818;SDS011;65772;51.096;17.006;2022-12-10T10:09:49;44.80;;;20.80;;
76818;SDS011;65772;51.096;17.006;2022-12-10T10:12:25;38.00;;;17.50;;
76818;SDS011;65772;51.096;17.006;2022-12-10T10:14:57;37.40;;;17.30;;
76818;SDS011;65772;51.096;17.006;2022-12-10T10:17:34;37.50;;;16.80;;
76818;SDS011;65772;51.096;17.006;2022-12-10T10:20:07;37.70;;;16.70;;
76818;SDS011;65772;51.096;17.006;2022-12-10T10:22:38;39.10;;;18.00;;
76818;SDS011;65772;51.096;17.006;2022-12-10T10:25:12;41.00;;;18.30;;
76818;SDS011;65772;51.096;17.006;2022-12-10T10:27:45;41.50;;;17.40;;
76818;SDS011;65772;51.096;17.006;2022-12-10T10:30:16;40.20;;;18.00;;
76818;SDS011;65772;51.096;17.006;2022-12-10T10:32:50;42.90;;;17.90;;
76818;SDS011;65772;51.096;17.006;2022-12-10T10:35:26;46.60;;;18.20;;
76818;SDS011;65772;51.096;17.006;2022-12-10T10:38:00;47.50;;;20.40;;
76818;SDS011;65772;51.096;17.006;2022-12-10T10:40:39;51.40;;;20.20;;
76818;SDS011;65772;51.096;17.006;2022-12-10T10:43:14;48.80;;;19.50;;
76818;SDS011;65772;51.096;17.006;2022-12-10T10:45:53;54.50;;;24.40;;
76818;SDS011;65772;51.096;17.006;2022-12-10T10:48:27;44.70;;;19.50;;
76818;SDS011;65772;51.096;17.006;2022-12-10T10:51:06;41.50;;;19.00;;
76818;SDS011;65772;51.096;17.006;2022-12-10T10:53:44;35.50;;;17.70;;
76818;SDS011;65772;51.096;17.006;2022-12-10T10:56:18;43.20;;;18.60;;
76818;SDS011;65772;51.096;17.006;2022-12-10T10:58:53;37.20;;;17.20;;
76818;SDS011;65772;51.096;17.006;2022-12-10T11:01:27;44.50;;;18.10;;
76818;SDS011;65772;51.096;17.006;2022-12-10T11:04:14;41.40;;;18.10;;
76818;SDS011;65772;51.096;17.006;2022-12-10T11:06:49;37.50;;;17.00;;
76818;SDS011;65772;51.096;17.006;2022-12-10T11:09:26;36.30;;;17.10;;
76818;SDS011;65772;51.096;17.006;2022-12-10T11:12:00;40.20;;;17.60;;
76818;SDS011;65772;51.096;17.006;2022-12-10T11:14:35;38.40;;;16.80;;
76818;SDS011;65772;51.096;17.006;2022-12-10T11:17:21;40.10;;;16.50;;
76818;SDS011;65772;51.096;17.006;2022-12-10T11:19:55;39.30;;;17.80;;
76818;SDS011;65772;51.096;17.006;2022-12-10T11:22:29;40.80;;;17.60;;
76818;SDS011;65772;51.096;17.006;2022-12-10T11:25:02;39.40;;;17.30;;
76818;SDS011;65772;51.096;17.006;2022-12-10T11:27:36;38.20;;;17.20;;
76818;SDS011;65772;51.096;17.006;2022-12-10T11:30:17;40.00;;;17.50;;
76818;SDS011;65772;51.096;17.006;2022-12-10T11:32:55;38.20;;;15.90;;
76818;SDS011;65772;51.096;17.006;2022-12-10T11:35:46;37.00;;;16.50;;
76818;SDS011;65772;51.096;17.006;2022-12-10T11:38:24;34.90;;;15.70;;
76818;SDS011;65772;51.096;17.006;2022-12-10T11:41:01;39.80;;;17.90;;
76818;SDS011;65772;51.096;17.006;2022-12-10T11:43:45;41.40;;;17.30;;
76818;SDS011;65772;51.096;17.006;2022-12-10T11:49:35;37.90;;;16.20;;
76818;SDS011;65772;51.096;17.006;2022-12-10T11:52:14;39.30;;;17.20;;
76818;SDS011;65772;51.096;17.006;2022-12-10T11:54:56;41.90;;;17.50;;
76818;SDS011;65772;51.096;17.006;2022-12-10T11:57:43;39.10;;;16.10;;
76818;SDS011;65772;51.096;17.006;2022-12-10T12:00:21;40.60;;;18.20;;
76818;SDS011;65772;51.096;17.006;2022-12-10T12:03:05;39.50;;;17.80;;
76818;SDS011;65772;51.096;17.006;2022-12-10T12:05:56;42.80;;;18.30;;
76818;SDS011;65772;51.096;17.006;2022-12-10T12:08:39;43.20;;;18.30;;
76818;SDS011;65772;51.096;17.006;2022-12-10T12:11:22;43.00;;;18.30;;
76818;SDS011;65772;51.096;17.006;2022-12-10T12:14:04;39.70;;;18.00;;
76818;SDS011;65772;51.096;17.006;2022-12-10T12:16:42;36.00;;;17.40;;
76818;SDS011;65772;51.096;17.006;2022-12-10T12:19:18;38.20;;;18.20;;
76818;SDS011;65772;51.096;17.006;2022-12-10T12:21:53;35.20;;;17.30;;
76818;SDS011;65772;51.096;17.006;2022-12-10T12:24:31;37.40;;;17.90;;
76818;SDS011;65772;51.096;17.006;2022-12-10T12:27:06;36.50;;;16.80;;
76818;SDS011;65772;51.096;17.006;2022-12-10T12:29:43;38.60;;;18.10;;
76818;SDS011;65772;51.096;17.006;2022-12-10T12:32:21;44.20;;;19.90;;
76818;SDS011;65772;51.096;17.006;2022-12-10T12:34:56;38.90;;;18.70;;
76818;SDS011;65772;51.096;17.006;2022-12-10T12:37:32;45.20;;;19.00;;
76818;SDS011;65772;51.096;17.006;2022-12-10T12:40:11;38.00;;;17.80;;
76818;SDS011;65772;51.096;17.006;2022-12-10T12:42:51;41.20;;;17.70;;
76818;SDS011;65772;51.096;17.006;2022-12-10T12:45:30;40.50;;;17.20;;
76818;SDS011;65772;51.096;17.006;2022-12-10T12:48:09;42.60;;;18.60;;
76818;SDS011;65772;51.096;17.006;2022-12-10T12:50:46;36.90;;;18.20;;
76818;SDS011;65772;51.096;17.006;2022-12-10T12:53:21;36.80;;;16.90;;
76818;SDS011;65772;51.096;17.006;2022-12-10T12:56:02;68.40;;;32.50;;
76818;SDS011;65772;51.096;17.006;2022-12-10T12:58:38;46.60;;;21.10;;
76818;SDS011;65772;51.096;17.006;2022-12-10T13:01:19;36.80;;;17.40;;
76818;SDS011;65772;51.096;17.006;2022-12-10T13:03:54;40.30;;;17.80;;
76818;SDS011;65772;51.096;17.006;2022-12-10T13:06:27;41.60;;;18.40;;
76818;SDS011;65772;51.096;17.006;2022-12-10T13:11:45;38.70;;;16.70;;
76818;SDS011;65772;51.096;17.006;2022-12-10T13:14:36;41.00;;;17.40;;
76818;SDS011;65772;51.096;17.006;2022-12-10T13:17:31;39.80;;;17.50;;
76818;SDS011;65772;51.096;17.006;2022-12-10T13:23:02;39.80;;;17.70;;
76818;SDS011;65772;51.096;17.006;2022-12-10T13:25:41;49.90;;;20.20;;
76818;SDS011;65772;51.096;17.006;2022-12-10T13:28:29;49.20;;;19.40;;
76818;SDS011;65772;51.096;17.006;2022-12-10T13:31:22;43.70;;;18.40;;
76818;SDS011;65772;51.096;17.006;2022-12-10T13:34:06;43.30;;;18.70;;
76818;SDS011;65772;51.096;17.006;2022-12-10T13:37:05;40.20;;;18.00;;
76818;SDS011;65772;51.096;17.006;2022-12-10T13:39:47;40.50;;;18.40;;
76818;SDS011;65772;51.096;17.006;2022-12-10T13:42:29;49.90;;;22.70;;
76818;SDS011;65772;51.096;17.006;2022-12-10T13:45:26;44.30;;;20.30;;
76818;SDS011;65772;51.096;17.006;2022-12-10T13:48:25;41.70;;;19.80;;
76818;SDS011;65772;51.096;17.006;2022-12-10T13:51:06;39.10;;;18.00;;
76818;SDS011;65772;51.096;17.006;2022-12-10T13:53:47;41.30;;;20.00;;
76818;SDS011;65772;51.096;17.006;2022-12-10T13:56:26;47.10;;;20.20;;
76818;SDS011;65772;51.096;17.006;2022-12-10T13:59:12;45.70;;;20.00;;
76818;SDS011;65772;51.096;17.006;2022-12-10T14:01:51;45.80;;;21.20;;
76818;SDS011;65772;51.096;17.006;2022-12-10T14:04:45;44.30;;;20.40;;
76818;SDS011;65772;51.096;17.006;2022-12-10T14:07:32;44.40;;;19.20;;
76818;SDS011;65772;51.096;17.006;2022-12-10T14:10:04;46.60;;;20.60;;
76818;SDS011;65772;51.096;17.006;2022-12-10T14:12:43;68.50;;;31.00;;
76818;SDS011;65772;51.096;17.006;2022-12-10T14:15:16;50.30;;;22.90;;
76818;SDS011;65772;51.096;17.006;2022-12-10T14:17:51;46.20;;;20.20;;
76818;SDS011;65772;51.096;17.006;2022-12-10T14:20:28;50.20;;;21.00;;
76818;SDS011;65772;51.096;17.006;2022-12-10T14:23:03;52.40;;;23.70;;
76818;SDS011;65772;51.096;17.006;2022-12-10T14:26:14;46.10;;;19.90;;
76818;SDS011;65772;51.096;17.006;2022-12-10T14:28:47;56.70;;;24.00;;
76818;SDS011;65772;51.096;17.006;2022-12-10T14:31:24;50.50;;;20.90;;
76818;SDS011;65772;51.096;17.006;2022-12-10T14:33:59;39.40;;;18.60;;
76818;SDS011;65772;51.096;17.006;2022-12-10T14:36:32;42.50;;;19.40;;
76818;SDS011;65772;51.096;17.006;2022-12-10T14:39:11;44.90;;;18.80;;
76818;SDS011;65772;51.096;17.006;2022-12-10T14:41:45;47.40;;;20.60;;
76818;SDS011;65772;51.096;17.006;2022-12-10T14:44:19;46.20;;;19.90;;
76818;SDS011;65772;51.096;17.006;2022-12-10T14:46:50;41.60;;;18.20;;
76818;SDS011;65772;51.096;17.006;2022-12-10T14:49:30;47.20;;;21.40;;
76818;SDS011;65772;51.096;17.006;2022-12-10T14:52:12;47.90;;;19.70;;
76818;SDS011;65772;51.096;17.006;2022-12-10T14:54:45;48.70;;;20.10;;
76818;SDS011;65772;51.096;17.006;2022-12-10T14:57:17;56.30;;;22.50;;
76818;SDS011;65772;51.096;17.006;2022-12-10T14:59:55;56.50;;;24.10;;
76818;SDS011;65772;51.096;17.006;2022-12-10T15:02:33;53.50;;;21.50;;
76818;SDS011;65772;51.096;17.006;2022-12-10T15:05:10;52.40;;;21.10;;
76818;SDS011;65772;51.096;17.006;2022-12-10T15:10:24;45.40;;;19.80;;
76818;SDS011;65772;51.096;17.006;2022-12-10T15:12:57;50.80;;;20.90;;
76818;SDS011;65772;51.096;17.006;2022-12-10T15:15:30;44.40;;;19.60;;